createdAt,value
2023-04-16T00:00:15.900Z,10.50
2023-04-16T00:05:17.612Z,10.60
2023-04-16T00:10:19.682Z,10.60
2023-04-16T00:15:21.412Z,10.50
2023-04-16T00:20:23.222Z,10.50
2023-04-16T00:25:24.920Z,10.50
2023-04-16T00:30:26.646Z,10.50
2023-04-16T00:35:28.400Z,10.50
2023-04-16T00:40:30.591Z,10.60
2023-04-16T00:45:32.455Z,10.60
2023-04-16T00:50:34.483Z,10.50
2023-04-16T00:55:36.708Z,10.50
2023-04-16T01:00:38.392Z,10.60
2023-04-16T01:05:40.771Z,10.60
2023-04-16T01:10:42.757Z,10.70
2023-04-16T01:15:44.532Z,10.70
2023-04-16T01:20:47.106Z,10.70
2023-04-16T01:25:48.790Z,10.70
2023-04-16T01:30:50.632Z,10.60
2023-04-16T01:35:52.471Z,10.40
2023-04-16T01:40:59.318Z,10.50
2023-04-16T01:46:27.122Z,10.50
2023-04-16T01:51:28.849Z,10.40
2023-04-16T01:56:30.537Z,10.40
2023-04-16T02:01:32.652Z,10.30
2023-04-16T02:06:34.319Z,10.30
2023-04-16T02:11:36.244Z,10.20
2023-04-16T02:16:38.090Z,10.30
2023-04-16T02:21:39.823Z,10.30
2023-04-16T02:26:41.579Z,10.40
2023-04-16T02:31:43.372Z,10.40
2023-04-16T02:36:45.334Z,10.40
2023-04-16T02:41:47.029Z,10.40
2023-04-16T02:46:48.794Z,10.40
2023-04-16T02:51:50.505Z,10.40
2023-04-16T02:56:52.229Z,10.40
2023-04-16T03:01:54.035Z,10.30
2023-04-16T03:06:56.037Z,10.30
2023-04-16T03:11:57.746Z,10.30
2023-04-16T03:16:59.429Z,10.40
2023-04-16T03:22:01.210Z,10.40
2023-04-16T03:27:03.037Z,10.40
2023-04-16T03:32:04.792Z,10.40
2023-04-16T03:37:06.612Z,10.40
2023-04-16T03:42:08.299Z,10.40
2023-04-16T03:47:09.966Z,10.40
2023-04-16T03:52:11.745Z,10.50
2023-04-16T03:57:13.438Z,10.40
2023-04-16T04:02:15.184Z,10.30
2023-04-16T04:07:17.030Z,10.20
2023-04-16T04:12:18.754Z,10.40
2023-04-16T04:17:20.576Z,10.40
2023-04-16T04:22:22.270Z,10.40
2023-04-16T04:27:23.975Z,10.40
2023-04-16T04:32:25.872Z,10.40
2023-04-16T04:37:27.570Z,10.50
2023-04-16T04:42:29.270Z,10.50
2023-04-16T04:47:31.168Z,10.50
2023-04-16T04:52:32.962Z,10.50
2023-04-16T04:57:34.717Z,10.50
2023-04-16T05:02:36.555Z,10.50
2023-04-16T05:07:38.337Z,10.60
2023-04-16T05:12:40.188Z,10.60
2023-04-16T05:17:42.041Z,10.50
2023-04-16T05:22:43.899Z,10.50
2023-04-16T05:27:45.644Z,10.50
2023-04-16T05:32:47.577Z,10.50
2023-04-16T05:37:49.304Z,10.60
2023-04-16T05:42:51.086Z,10.60
2023-04-16T05:47:52.892Z,10.60
2023-04-16T05:52:54.658Z,10.70
2023-04-16T05:57:57.437Z,10.60
2023-04-16T06:02:59.445Z,10.80
2023-04-16T06:08:01.318Z,10.80
2023-04-16T06:13:03.364Z,10.90
2023-04-16T06:18:05.335Z,11.10
2023-04-16T06:23:07.086Z,11.10
2023-04-16T06:28:08.824Z,11.10
2023-04-16T06:33:11.213Z,11.00
2023-04-16T06:38:19.132Z,10.90
2023-04-16T06:43:21.724Z,11.00
2023-04-16T06:48:23.604Z,11.00
2023-04-16T06:53:28.571Z,11.00
2023-04-16T06:58:30.784Z,11.10
2023-04-16T07:03:33.018Z,11.10
2023-04-16T07:08:34.864Z,11.20
2023-04-16T07:13:36.587Z,11.30
2023-04-16T07:18:38.419Z,11.40
2023-04-16T07:23:40.220Z,11.40
2023-04-16T07:28:42.005Z,11.40
2023-04-16T07:33:43.708Z,11.40
2023-04-16T07:38:45.680Z,11.40
2023-04-16T07:43:47.431Z,11.40
2023-04-16T07:48:49.178Z,11.30
2023-04-16T07:53:50.938Z,11.30
2023-04-16T07:58:52.655Z,11.30
2023-04-16T08:03:54.533Z,11.30
2023-04-16T08:08:56.549Z,11.20
2023-04-16T08:13:58.223Z,11.20
2023-04-16T08:19:01.172Z,11.10
2023-04-16T08:24:02.924Z,11.20
2023-04-16T08:29:04.631Z,11.20
2023-04-16T08:34:06.539Z,11.20
2023-04-16T08:39:08.494Z,11.10
2023-04-16T08:44:16.612Z,11.20
2023-04-16T08:49:18.335Z,11.30
2023-04-16T08:54:34.712Z,11.10
2023-04-16T08:59:38.210Z,11.10
2023-04-16T09:04:41.667Z,11.00
2023-04-16T09:09:45.253Z,10.90
2023-04-16T09:14:50.956Z,11.00
2023-04-16T09:19:52.636Z,11.20
2023-04-16T09:24:54.391Z,11.20
2023-04-16T09:29:56.260Z,11.00
2023-04-16T09:34:58.941Z,10.80
2023-04-16T09:40:03.581Z,10.80
2023-04-16T09:45:06.386Z,10.80
2023-04-16T09:50:12.246Z,11.00
2023-04-16T09:55:14.464Z,11.00
2023-04-16T10:00:18.923Z,11.00
2023-04-16T10:05:21.115Z,11.10
2023-04-16T10:10:23.378Z,11.00
2023-04-16T10:15:25.803Z,11.40
2023-04-16T10:20:28.410Z,11.30
2023-04-16T10:25:32.264Z,11.30
2023-04-16T10:30:37.374Z,10.90
2023-04-16T10:35:40.710Z,10.90
2023-04-16T10:40:45.953Z,11.20
2023-04-16T10:45:48.839Z,11.20
2023-04-16T10:50:58.483Z,11.00
2023-04-16T10:56:03.170Z,11.20
2023-04-16T11:01:13.978Z,11.30
2023-04-16T11:06:26.963Z,11.20
2023-04-16T11:11:37.670Z,11.40
2023-04-16T11:16:42.402Z,11.20
2023-04-16T11:21:45.268Z,11.60
2023-04-16T11:26:51.885Z,11.50
2023-04-16T11:31:54.747Z,11.30
2023-04-16T11:36:56.875Z,11.50
2023-04-16T11:41:58.708Z,11.40
2023-04-16T11:47:07.046Z,11.10
2023-04-16T11:52:08.971Z,11.00
2023-04-16T11:57:11.459Z,11.00
2023-04-16T12:02:13.282Z,11.10
2023-04-16T12:07:15.249Z,11.10
2023-04-16T12:12:31.916Z,11.60
2023-04-16T12:17:35.550Z,11.70
2023-04-16T12:22:39.588Z,11.80
2023-04-16T12:27:59.597Z,11.50
2023-04-16T12:33:17.899Z,11.50
2023-04-16T12:38:21.269Z,11.60
2023-04-16T12:43:25.294Z,11.30
2023-04-16T12:48:27.133Z,11.20
2023-04-16T12:53:29.167Z,11.00
2023-04-16T12:58:31.041Z,11.20
2023-04-16T13:03:32.868Z,11.20
2023-04-16T13:08:34.693Z,11.10
2023-04-16T13:13:36.829Z,11.20
2023-04-16T13:18:39.410Z,11.40
2023-04-16T13:23:41.183Z,11.30
2023-04-16T13:28:42.948Z,11.50
2023-04-16T13:33:44.659Z,11.30
2023-04-16T13:38:46.664Z,11.40
2023-04-16T13:43:53.774Z,11.40
2023-04-16T13:48:55.871Z,11.60
2023-04-16T13:53:57.621Z,11.80
2023-04-16T13:58:59.357Z,11.80
2023-04-16T14:04:06.451Z,11.60
2023-04-16T14:09:10.747Z,11.70
2023-04-16T14:14:12.889Z,11.70
2023-04-16T14:19:14.687Z,11.40
2023-04-16T14:24:16.376Z,11.30
2023-04-16T14:29:18.154Z,11.20
2023-04-16T14:34:19.863Z,11.20
2023-04-16T14:39:21.804Z,11.00
2023-04-16T14:44:23.531Z,10.90
2023-04-16T14:49:26.001Z,10.80
2023-04-16T14:54:28.070Z,11.00
2023-04-16T14:59:29.863Z,11.00
2023-04-16T15:04:31.830Z,11.20
2023-04-16T15:09:34.763Z,11.30
2023-04-16T15:14:36.467Z,11.30
2023-04-16T15:19:38.195Z,11.40
2023-04-16T15:24:39.960Z,11.10
2023-04-16T15:29:41.700Z,11.10
2023-04-16T15:34:43.494Z,11.20
2023-04-16T15:39:45.329Z,11.50
2023-04-16T15:44:47.030Z,11.50
2023-04-16T15:49:49.062Z,11.60
2023-04-16T15:54:50.780Z,11.60
2023-04-16T16:00:05.859Z,11.60
2023-04-16T16:05:13.632Z,11.60
2023-04-16T16:10:15.636Z,11.50
2023-04-16T16:15:17.490Z,11.50
2023-04-16T16:20:19.632Z,11.40
2023-04-16T16:25:22.233Z,11.20
2023-04-16T16:30:23.984Z,11.00
2023-04-16T16:35:26.229Z,11.00
2023-04-16T16:40:28.357Z,10.80
2023-04-16T16:45:31.181Z,10.80
2023-04-16T16:50:33.132Z,10.70
2023-04-16T16:55:35.738Z,10.60
2023-04-16T17:00:37.925Z,10.50
2023-04-16T17:05:39.984Z,10.60
2023-04-16T17:10:43.502Z,10.50
2023-04-16T17:15:46.281Z,10.50
2023-04-16T17:20:47.994Z,10.50
2023-04-16T17:25:50.124Z,10.40
2023-04-16T17:30:53.137Z,10.40
2023-04-16T17:35:54.852Z,10.40
2023-04-16T17:40:57.361Z,10.40
2023-04-16T17:45:59.253Z,10.40
2023-04-16T17:51:09.189Z,10.50
2023-04-16T17:56:11.317Z,10.50
2023-04-16T18:01:13.756Z,10.40
2023-04-16T18:06:15.498Z,10.60
2023-04-16T18:11:17.161Z,10.40
2023-04-16T18:16:18.940Z,10.40
2023-04-16T18:21:20.783Z,10.40
2023-04-16T18:26:23.039Z,10.40
2023-04-16T18:31:25.234Z,10.30
2023-04-16T18:36:27.416Z,10.30
2023-04-16T18:41:30.016Z,10.30
2023-04-16T18:46:31.790Z,10.40
2023-04-16T18:51:33.539Z,10.40
2023-04-16T18:56:35.571Z,10.40
2023-04-16T19:01:37.247Z,10.40
2023-04-16T19:06:39.006Z,10.50
2023-04-16T19:11:41.068Z,10.50
2023-04-16T19:16:42.858Z,10.40
2023-04-16T19:21:44.596Z,10.40
2023-04-16T19:26:46.304Z,10.30
2023-04-16T19:31:48.093Z,10.40
2023-04-16T19:36:49.969Z,10.40
2023-04-16T19:41:51.629Z,10.30
2023-04-16T19:46:53.553Z,10.30
2023-04-16T19:51:55.244Z,10.20
2023-04-16T19:56:57.183Z,10.20
2023-04-16T20:01:59.176Z,10.20
2023-04-16T20:07:01.067Z,10.20
2023-04-16T20:12:04.141Z,10.20
2023-04-16T20:17:10.313Z,10.20
2023-04-16T20:22:12.257Z,10.20
2023-04-16T20:27:14.975Z,10.10
2023-04-16T20:32:16.804Z,10.10
2023-04-16T20:37:18.536Z,10.10
2023-04-16T20:42:22.178Z,10.20
2023-04-16T20:47:24.254Z,10.20
2023-04-16T20:52:26.381Z,10.10
2023-04-16T20:57:29.624Z,10.10
2023-04-16T21:02:31.628Z,10.00
2023-04-16T21:07:33.513Z,10.00
2023-04-16T21:12:35.874Z,10.00
2023-04-16T21:17:38.712Z,10.00
2023-04-16T21:22:40.561Z,9.90
2023-04-16T21:27:42.274Z,9.90
2023-04-16T21:32:44.397Z,10.00
2023-04-16T21:37:46.213Z,10.00
2023-04-16T21:42:48.011Z,10.00
2023-04-16T21:47:49.820Z,10.00
2023-04-16T21:52:52.496Z,10.10
2023-04-16T21:57:54.485Z,10.00
2023-04-16T22:03:00.263Z,10.00
2023-04-16T22:08:10.797Z,9.90
2023-04-16T22:13:25.018Z,9.90
2023-04-16T22:18:27.091Z,9.80
2023-04-16T22:23:28.779Z,9.80
2023-04-16T22:28:30.550Z,9.90
2023-04-16T22:33:32.235Z,9.80
2023-04-16T22:38:33.925Z,9.70
2023-04-16T22:43:37.141Z,9.70
2023-04-16T22:48:39.032Z,9.60
2023-04-16T22:53:41.265Z,9.60
2023-04-16T22:58:42.940Z,9.50
2023-04-16T23:03:44.770Z,9.50
2023-04-16T23:08:46.525Z,9.40
2023-04-16T23:13:48.201Z,9.50
2023-04-16T23:18:49.946Z,9.40
2023-04-16T23:23:51.743Z,9.40
2023-04-16T23:28:53.414Z,9.30
2023-04-16T23:33:55.141Z,9.40
2023-04-16T23:38:56.857Z,9.30
2023-04-16T23:43:58.727Z,9.30
2023-04-16T23:49:00.694Z,9.20
2023-04-16T23:54:02.471Z,9.20
2023-04-16T23:59:04.202Z,9.20
